Time;durP1;ratioP1;P1;durP2;ratioP2;P2;SDS_P1;SDS_P2;PMS_P1;PMS_P2;Temp;Humidity;BMP_temperature;BMP_pressure;BME280_temperature;BME280_humidity;BME280_pressure;Samples;Min_cycle;Max_cycle;Signal;HPM_P1;HPM_P2
2023/04/30 00:02:50;;;;;;;25.83;17.60;;;;;;;;;;4939846;29;20062;-91
2023/04/30 00:05:16;;;;;;;27.27;17.17;;;;;;;;;;4939240;29;20074;-92
2023/04/30 00:07:42;;;;;;;32.00;19.08;;;;;;;;;;4942269;29;20027;-91
2023/04/30 00:10:11;;;;;;;32.15;20.17;;;;;;;;;;4942825;29;20020;-91
2023/04/30 00:12:37;;;;;;;35.05;22.75;;;;;;;;;;4942029;29;20338;-92
2023/04/30 00:18:07;;;;;;;35.50;22.30;;;;;;;;;;4942932;29;20035;-91
2023/04/30 00:20:36;;;;;;;27.80;20.00;;;;;;;;;;4942720;29;20044;-91
2023/04/30 00:23:02;;;;;;;27.90;18.77;;;;;;;;;;4944257;29;20039;-90
2023/04/30 00:25:28;;;;;;;30.48;18.98;;;;;;;;;;4945085;29;20433;-90
2023/04/30 00:27:55;;;;;;;25.30;17.48;;;;;;;;;;4944912;29;20544;-92
2023/04/30 00:33:38;;;;;;;24.85;17.17;;;;;;;;;;4961732;29;20453;-92
2023/04/30 00:36:04;;;;;;;24.73;18.02;;;;;;;;;;4959237;29;20295;-92
2023/04/30 00:38:30;;;;;;;26.85;18.63;;;;;;;;;;4956226;29;20042;-90
2023/04/30 00:40:56;;;;;;;32.00;19.02;;;;;;;;;;4961773;29;20031;-92
2023/04/30 00:46:26;;;;;;;26.33;18.75;;;;;;;;;;4945717;29;20071;-92
2023/04/30 00:48:52;;;;;;;36.08;24.08;;;;;;;;;;4961318;29;20035;-92
2023/04/30 00:51:18;;;;;;;50.30;29.63;;;;;;;;;;4961339;29;20031;-93
2023/04/30 00:53:45;;;;;;;61.03;35.28;;;;;;;;;;4961130;29;20054;-94
2023/04/30 00:56:12;;;;;;;65.60;35.35;;;;;;;;;;4944438;29;20051;-90
2023/04/30 01:01:42;;;;;;;54.55;32.25;;;;;;;;;;4941029;29;20030;-90
2023/04/30 01:04:08;;;;;;;39.03;24.77;;;;;;;;;;4941261;29;20063;-92
2023/04/30 01:06:34;;;;;;;34.10;22.13;;;;;;;;;;4946681;29;20015;-92
2023/04/30 01:09:00;;;;;;;35.58;22.75;;;;;;;;;;4948326;29;20312;-91
2023/04/30 01:11:39;;;;;;;28.83;20.38;;;;;;;;;;4923360;29;20039;-91
2023/04/30 01:17:16;;;;;;;30.70;20.67;;;;;;;;;;4936057;29;20023;-92
2023/04/30 01:19:42;;;;;;;33.15;22.80;;;;;;;;;;4943516;29;20040;-92
2023/04/30 01:22:18;;;;;;;33.20;23.10;;;;;;;;;;4944059;29;20039;-90
2023/04/30 01:25:03;;;;;;;38.75;25.20;;;;;;;;;;4930038;29;20098;-90
2023/04/30 01:27:47;;;;;;;35.15;25.92;;;;;;;;;;4952088;29;20050;-90
2023/04/30 01:33:17;;;;;;;34.95;21.65;;;;;;;;;;4940884;29;20046;-91
2023/04/30 01:35:58;;;;;;;33.13;19.80;;;;;;;;;;4922214;29;20028;-91
2023/04/30 01:38:34;;;;;;;30.23;17.87;;;;;;;;;;4956166;29;20050;-92
2023/04/30 01:41:00;;;;;;;26.55;17.10;;;;;;;;;;4941445;29;20341;-90
2023/04/30 01:43:39;;;;;;;25.23;17.00;;;;;;;;;;4948146;29;20031;-92
2023/04/30 01:46:08;;;;;;;21.73;16.92;;;;;;;;;;4960019;29;20336;-91
2023/04/30 01:48:37;;;;;;;25.92;17.40;;;;;;;;;;4943467;29;20123;-91
2023/04/30 01:51:19;;;;;;;25.00;18.08;;;;;;;;;;4930853;29;20095;-90
2023/04/30 01:53:46;;;;;;;23.65;17.85;;;;;;;;;;4941384;29;20330;-91
2023/04/30 01:56:32;;;;;;;23.38;17.38;;;;;;;;;;4941323;29;20351;-90
2023/04/30 01:58:59;;;;;;;22.98;16.88;;;;;;;;;;4908525;29;20031;-91
2023/04/30 02:01:29;;;;;;;26.55;17.90;;;;;;;;;;4934181;29;20024;-92
2023/04/30 02:03:55;;;;;;;26.38;17.92;;;;;;;;;;4922019;29;20024;-91
2023/04/30 02:06:21;;;;;;;29.63;19.85;;;;;;;;;;4922175;29;20080;-91
2023/04/30 02:08:47;;;;;;;26.00;18.50;;;;;;;;;;4926337;29;20054;-90
2023/04/30 02:11:13;;;;;;;23.15;17.60;;;;;;;;;;4939867;29;20031;-91
2023/04/30 02:13:39;;;;;;;24.58;17.90;;;;;;;;;;4921793;29;20055;-91
2023/04/30 02:16:05;;;;;;;28.45;18.33;;;;;;;;;;4938986;29;20339;-92
2023/04/30 02:18:31;;;;;;;28.83;20.90;;;;;;;;;;4934773;29;20028;-90
2023/04/30 02:20:58;;;;;;;25.77;18.42;;;;;;;;;;4920900;29;20029;-91
2023/04/30 02:23:24;;;;;;;27.55;19.00;;;;;;;;;;4920477;29;20047;-91
2023/04/30 02:25:50;;;;;;;28.17;19.70;;;;;;;;;;4921891;29;20442;-92
2023/04/30 02:28:16;;;;;;;26.80;18.02;;;;;;;;;;4933968;29;20040;-92
2023/04/30 02:30:42;;;;;;;31.45;18.95;;;;;;;;;;4940453;29;20031;-92
2023/04/30 02:33:11;;;;;;;28.17;19.05;;;;;;;;;;4940384;29;20418;-91
2023/04/30 02:35:37;;;;;;;23.15;18.60;;;;;;;;;;4940425;29;20035;-91
2023/04/30 02:38:03;;;;;;;26.13;19.30;;;;;;;;;;4940416;29;20032;-92
2023/04/30 02:40:29;;;;;;;23.92;19.30;;;;;;;;;;4924562;29;20024;-92
2023/04/30 02:42:55;;;;;;;25.58;19.42;;;;;;;;;;4906938;29;20469;-91
2023/04/30 02:45:21;;;;;;;26.40;19.83;;;;;;;;;;4920352;29;20123;-93
2023/04/30 02:47:47;;;;;;;25.80;19.58;;;;;;;;;;4931044;29;20035;-92
2023/04/30 02:50:14;;;;;;;23.50;18.85;;;;;;;;;;4940543;29;20032;-92
2023/04/30 02:52:40;;;;;;;25.42;19.17;;;;;;;;;;4938995;29;20028;-93
2023/04/30 02:55:06;;;;;;;27.95;20.08;;;;;;;;;;4922658;29;20391;-92
2023/04/30 02:57:32;;;;;;;30.65;19.85;;;;;;;;;;4920235;29;20428;-91
2023/04/30 03:03:02;;;;;;;25.95;18.10;;;;;;;;;;4921200;29;20127;-91
2023/04/30 03:05:29;;;;;;;28.98;19.15;;;;;;;;;;4924101;29;20032;-92
2023/04/30 03:07:55;;;;;;;29.40;18.25;;;;;;;;;;4923683;29;20083;-90
2023/04/30 03:10:21;;;;;;;24.27;18.02;;;;;;;;;;4921826;29;20029;-91
2023/04/30 03:12:47;;;;;;;28.08;16.98;;;;;;;;;;4921183;29;20051;-93
2023/04/30 03:18:30;;;;;;;25.23;18.05;;;;;;;;;;4902843;29;20172;-92
2023/04/30 03:20:56;;;;;;;27.25;18.00;;;;;;;;;;4921083;29;20078;-90
2023/04/30 03:23:23;;;;;;;27.00;17.73;;;;;;;;;;4921306;29;20043;-90
2023/04/30 03:25:49;;;;;;;25.38;19.02;;;;;;;;;;4921022;29;20301;-92
2023/04/30 03:28:16;;;;;;;25.98;18.38;;;;;;;;;;4937514;29;20386;-91
2023/04/30 03:33:45;;;;;;;28.27;17.48;;;;;;;;;;4921053;29;20465;-92
2023/04/30 03:36:11;;;;;;;24.35;17.77;;;;;;;;;;4937221;29;20442;-92
2023/04/30 03:38:37;;;;;;;26.45;18.48;;;;;;;;;;4939812;29;20027;-90
2023/04/30 03:41:04;;;;;;;24.73;18.95;;;;;;;;;;4943253;29;20027;-90
2023/04/30 03:43:30;;;;;;;24.02;19.05;;;;;;;;;;4942441;29;20027;-92
2023/04/30 03:45:56;;;;;;;26.75;19.45;;;;;;;;;;4933302;29;20035;-92
2023/04/30 03:48:22;;;;;;;27.60;19.42;;;;;;;;;;4924504;29;20036;-93
2023/04/30 03:50:48;;;;;;;26.02;19.13;;;;;;;;;;4923556;29;20036;-92
2023/04/30 03:53:15;;;;;;;29.48;20.73;;;;;;;;;;4939165;29;20046;-92
2023/04/30 03:55:41;;;;;;;27.33;19.83;;;;;;;;;;4949066;29;20045;-92
2023/04/30 03:58:07;;;;;;;27.85;19.98;;;;;;;;;;4944911;29;20087;-93
2023/04/30 04:00:52;;;;;;;27.38;19.75;;;;;;;;;;4962313;29;20028;-93
2023/04/30 04:03:19;;;;;;;28.17;19.20;;;;;;;;;;4929244;29;20031;-91
2023/04/30 04:05:45;;;;;;;26.20;20.58;;;;;;;;;;4943466;29;20035;-90
2023/04/30 04:08:11;;;;;;;26.67;19.50;;;;;;;;;;4942833;29;20032;-91
2023/04/30 04:10:38;;;;;;;30.40;19.08;;;;;;;;;;4943400;29;20027;-91
2023/04/30 04:13:05;;;;;;;29.88;19.38;;;;;;;;;;4942056;29;20036;-91
2023/04/30 04:19:04;;;;;;;26.08;17.33;;;;;;;;;;4923846;29;20079;-91
2023/04/30 04:21:30;;;;;;;25.42;17.73;;;;;;;;;;4925277;29;20056;-92
2023/04/30 04:23:56;;;;;;;22.52;17.00;;;;;;;;;;4924203;29;20076;-92
2023/04/30 04:26:24;;;;;;;28.05;16.63;;;;;;;;;;4924017;29;20032;-92
2023/04/30 04:28:51;;;;;;;22.77;17.00;;;;;;;;;;4923640;29;20083;-92
2023/04/30 04:34:21;;;;;;;23.90;17.17;;;;;;;;;;4931232;29;20084;-92
2023/04/30 04:36:47;;;;;;;25.05;17.25;;;;;;;;;;4942729;29;20024;-92
2023/04/30 04:39:13;;;;;;;25.50;17.25;;;;;;;;;;4942555;29;20032;-92
2023/04/30 04:41:40;;;;;;;26.02;16.73;;;;;;;;;;4942720;29;20110;-91
2023/04/30 04:44:06;;;;;;;23.92;15.98;;;;;;;;;;4924245;29;20116;-92
2023/04/30 04:46:52;;;;;;;26.23;17.45;;;;;;;;;;4923317;29;20455;-92
2023/04/30 04:49:19;;;;;;;22.55;16.98;;;;;;;;;;4923304;29;20354;-92
2023/04/30 04:51:45;;;;;;;22.80;17.23;;;;;;;;;;4921635;29;20036;-93
2023/04/30 04:54:11;;;;;;;24.30;15.98;;;;;;;;;;4929549;29;20156;-92
2023/04/30 04:56:37;;;;;;;26.65;18.15;;;;;;;;;;4938515;29;20016;-88
2023/04/30 04:59:03;;;;;;;21.05;16.70;;;;;;;;;;4944135;29;20031;-93
2023/04/30 05:01:29;;;;;;;22.02;16.17;;;;;;;;;;4930260;29;20075;-92
2023/04/30 05:03:56;;;;;;;22.50;16.27;;;;;;;;;;4941143;29;20437;-91
2023/04/30 05:06:22;;;;;;;23.15;14.82;;;;;;;;;;4942237;29;20047;-86
2023/04/30 05:08:48;;;;;;;20.25;16.40;;;;;;;;;;4953372;29;20027;-92
2023/04/30 05:11:14;;;;;;;23.17;15.43;;;;;;;;;;4943998;29;20027;-90
2023/04/30 05:13:40;;;;;;;20.90;14.70;;;;;;;;;;4959772;29;20038;-90
2023/04/30 05:19:14;;;;;;;35.40;24.45;;;;;;;;;;4961092;29;20034;-89
2023/04/30 05:21:40;;;;;;;28.40;21.93;;;;;;;;;;4961187;29;20061;-91
2023/04/30 05:24:07;;;;;;;24.70;16.63;;;;;;;;;;4961110;29;20075;-90
2023/04/30 05:26:33;;;;;;;25.67;17.52;;;;;;;;;;4961052;29;20031;-90
2023/04/30 05:28:59;;;;;;;26.63;18.33;;;;;;;;;;4960526;29;20031;-91
2023/04/30 05:31:44;;;;;;;39.85;23.27;;;;;;;;;;4943665;29;20397;-91
2023/04/30 05:34:10;;;;;;;29.30;17.35;;;;;;;;;;4959854;29;20035;-90
2023/04/30 05:36:37;;;;;;;33.55;19.50;;;;;;;;;;4943430;29;20050;-90
2023/04/30 05:39:03;;;;;;;31.08;20.17;;;;;;;;;;4951444;29;20047;-89
2023/04/30 05:41:29;;;;;;;29.10;21.10;;;;;;;;;;4953153;29;20032;-90
2023/04/30 05:43:55;;;;;;;29.35;21.00;;;;;;;;;;4940180;29;20019;-89
2023/04/30 05:46:21;;;;;;;23.85;19.27;;;;;;;;;;4940338;29;20040;-87
2023/04/30 05:48:47;;;;;;;24.23;18.75;;;;;;;;;;4940359;29;20023;-90
2023/04/30 05:51:14;;;;;;;25.77;18.98;;;;;;;;;;4940325;29;20024;-89
2023/04/30 05:53:40;;;;;;;22.65;17.35;;;;;;;;;;4942989;29;20053;-89
2023/04/30 05:56:06;;;;;;;23.02;16.85;;;;;;;;;;4943381;29;20063;-90
2023/04/30 05:58:32;;;;;;;23.45;16.85;;;;;;;;;;4960532;29;20027;-91
2023/04/30 06:00:58;;;;;;;24.50;17.38;;;;;;;;;;4943609;29;20062;-89
2023/04/30 06:03:24;;;;;;;23.45;18.17;;;;;;;;;;4942066;29;20038;-90
2023/04/30 06:05:50;;;;;;;26.33;19.45;;;;;;;;;;4943209;29;20034;-89
2023/04/30 06:08:16;;;;;;;24.45;20.10;;;;;;;;;;4959983;29;20070;-89
2023/04/30 06:10:43;;;;;;;31.08;21.33;;;;;;;;;;4942954;29;20418;-89
2023/04/30 06:13:09;;;;;;;25.00;18.73;;;;;;;;;;4939789;29;20035;-90
2023/04/30 06:15:35;;;;;;;25.40;19.45;;;;;;;;;;4941147;29;20099;-90
2023/04/30 06:18:01;;;;;;;29.15;18.98;;;;;;;;;;4939937;29;20063;-90
2023/04/30 06:20:27;;;;;;;25.80;19.50;;;;;;;;;;4936561;29;20094;-90
2023/04/30 06:22:53;;;;;;;24.33;17.98;;;;;;;;;;4937723;29;20035;-89
2023/04/30 06:25:20;;;;;;;22.08;17.63;;;;;;;;;;4946900;29;20040;-90
2023/04/30 06:27:46;;;;;;;25.35;18.27;;;;;;;;;;4936610;29;20047;-91
2023/04/30 06:30:12;;;;;;;25.27;18.52;;;;;;;;;;4936361;29;20024;-90
2023/04/30 06:32:38;;;;;;;23.75;17.55;;;;;;;;;;4921804;29;20174;-92
2023/04/30 06:35:05;;;;;;;21.73;17.50;;;;;;;;;;4952557;29;20024;-91
2023/04/30 06:37:36;;;;;;;22.15;16.45;;;;;;;;;;4938720;29;20046;-91
2023/04/30 06:40:02;;;;;;;24.55;17.50;;;;;;;;;;4940811;29;20123;-91
2023/04/30 06:42:33;;;;;;;23.20;16.67;;;;;;;;;;4924955;29;20030;-90
2023/04/30 06:45:00;;;;;;;21.70;16.77;;;;;;;;;;4936332;29;20056;-91
2023/04/30 06:47:26;;;;;;;23.10;17.15;;;;;;;;;;4936411;29;20081;-90
2023/04/30 06:49:52;;;;;;;26.88;19.08;;;;;;;;;;4921266;29;20059;-90
2023/04/30 06:52:18;;;;;;;28.85;20.40;;;;;;;;;;4936181;29;20479;-90
2023/04/30 06:54:44;;;;;;;23.27;18.48;;;;;;;;;;4921834;29;20032;-90
2023/04/30 06:57:11;;;;;;;25.27;18.65;;;;;;;;;;4936243;29;20028;-90
2023/04/30 06:59:38;;;;;;;25.25;19.58;;;;;;;;;;4937237;29;20021;-90
2023/04/30 07:02:22;;;;;;;22.38;18.20;;;;;;;;;;4921536;29;20028;-92
2023/04/30 07:04:48;;;;;;;26.95;17.08;;;;;;;;;;4936203;29;20032;-91
2023/04/30 07:07:14;;;;;;;25.40;17.65;;;;;;;;;;4936228;29;20067;-91
2023/04/30 07:09:40;;;;;;;21.30;16.65;;;;;;;;;;4921260;29;20034;-90
2023/04/30 07:12:06;;;;;;;23.85;15.70;;;;;;;;;;4920904;29;20039;-89
2023/04/30 07:14:32;;;;;;;22.13;15.70;;;;;;;;;;4922353;29;20419;-90
2023/04/30 07:16:58;;;;;;;18.58;15.65;;;;;;;;;;4925153;29;20482;-92
2023/04/30 07:19:25;;;;;;;20.58;15.35;;;;;;;;;;4929288;29;20411;-90
2023/04/30 07:21:51;;;;;;;21.60;15.63;;;;;;;;;;4961673;29;20130;-93
2023/04/30 07:24:18;;;;;;;21.27;14.18;;;;;;;;;;4963440;29;20374;-90
2023/04/30 07:26:44;;;;;;;18.00;14.07;;;;;;;;;;4962980;29;20024;-92
2023/04/30 07:29:10;;;;;;;18.70;13.57;;;;;;;;;;4946164;29;20426;-91
2023/04/30 07:31:36;;;;;;;16.90;12.20;;;;;;;;;;4962832;29;20020;-91
2023/04/30 07:34:02;;;;;;;13.95;11.45;;;;;;;;;;4945976;29;20035;-91
2023/04/30 07:36:28;;;;;;;21.48;11.60;;;;;;;;;;4944008;29;20032;-92
2023/04/30 07:38:55;;;;;;;14.70;11.05;;;;;;;;;;4945997;29;20023;-91
2023/04/30 07:41:21;;;;;;;13.85;11.90;;;;;;;;;;4961962;29;20023;-92
2023/04/30 07:43:47;;;;;;;16.38;11.07;;;;;;;;;;4929620;29;20039;-92
2023/04/30 07:46:13;;;;;;;21.58;12.85;;;;;;;;;;4959897;29;20065;-92
2023/04/30 07:48:39;;;;;;;16.40;11.95;;;;;;;;;;4956048;29;20028;-90
2023/04/30 07:51:05;;;;;;;15.88;12.43;;;;;;;;;;4938197;29;20040;-93
2023/04/30 07:53:31;;;;;;;14.40;12.00;;;;;;;;;;4928919;29;20048;-92
2023/04/30 07:55:57;;;;;;;14.40;12.02;;;;;;;;;;4924425;29;20035;-90
2023/04/30 07:58:23;;;;;;;16.65;11.00;;;;;;;;;;4938425;29;20106;-82
2023/04/30 08:00:49;;;;;;;16.33;11.73;;;;;;;;;;4938492;29;20430;-81
2023/04/30 08:03:15;;;;;;;15.30;11.25;;;;;;;;;;4926546;29;20226;-83
2023/04/30 08:05:41;;;;;;;13.50;11.30;;;;;;;;;;4934346;29;20042;-83
2023/04/30 08:08:08;;;;;;;15.00;12.45;;;;;;;;;;4923538;29;20135;-83
2023/04/30 08:10:35;;;;;;;17.48;12.18;;;;;;;;;;4935859;29;20039;-83
2023/04/30 08:13:01;;;;;;;14.75;12.27;;;;;;;;;;4941480;29;20397;-80
2023/04/30 08:15:27;;;;;;;14.93;11.57;;;;;;;;;;4942604;29;20153;-83
2023/04/30 08:17:53;;;;;;;15.25;12.10;;;;;;;;;;4941330;29;20023;-83
2023/04/30 08:20:22;;;;;;;16.65;12.52;;;;;;;;;;4942524;29;20048;-82
2023/04/30 08:22:49;;;;;;;15.25;12.07;;;;;;;;;;4942516;29;20363;-83
2023/04/30 08:25:15;;;;;;;16.05;12.32;;;;;;;;;;4942105;29;20028;-82
2023/04/30 08:27:41;;;;;;;16.48;10.82;;;;;;;;;;4940458;29;20122;-83
2023/04/30 08:30:07;;;;;;;15.35;10.18;;;;;;;;;;4942252;29;20376;-82
2023/04/30 08:32:37;;;;;;;15.18;9.77;;;;;;;;;;4941142;29;20449;-83
2023/04/30 08:35:04;;;;;;;15.73;9.95;;;;;;;;;;4942373;29;20063;-82
2023/04/30 08:37:30;;;;;;;16.60;9.98;;;;;;;;;;4945857;29;20015;-82
2023/04/30 08:39:56;;;;;;;14.80;9.25;;;;;;;;;;4958140;29;20123;-83
2023/04/30 08:42:25;;;;;;;14.65;10.00;;;;;;;;;;4944420;29;20050;-81
2023/04/30 08:44:51;;;;;;;12.27;9.10;;;;;;;;;;4961367;29;20031;-93
2023/04/30 08:47:18;;;;;;;13.77;9.82;;;;;;;;;;4961369;29;20410;-90
2023/04/30 08:49:45;;;;;;;17.42;9.45;;;;;;;;;;4944460;29;20406;-83
2023/04/30 08:52:11;;;;;;;24.17;11.27;;;;;;;;;;4961151;29;20054;-81
2023/04/30 08:54:37;;;;;;;13.35;10.25;;;;;;;;;;4944049;29;20024;-83
2023/04/30 08:57:03;;;;;;;14.73;11.45;;;;;;;;;;4960737;29;20110;-85
2023/04/30 08:59:29;;;;;;;13.98;10.45;;;;;;;;;;4943950;29;20118;-83
2023/04/30 09:01:55;;;;;;;17.63;11.40;;;;;;;;;;4960987;29;20039;-83
2023/04/30 09:04:22;;;;;;;20.55;11.48;;;;;;;;;;4943951;29;20031;-83
2023/04/30 09:06:48;;;;;;;20.52;12.05;;;;;;;;;;4944027;29;20481;-84
2023/04/30 09:09:15;;;;;;;17.00;11.30;;;;;;;;;;4960997;29;20034;-84
2023/04/30 09:11:41;;;;;;;15.45;11.18;;;;;;;;;;4925057;29;20032;-84
2023/04/30 09:14:07;;;;;;;15.77;10.88;;;;;;;;;;4926433;29;20382;-84
2023/04/30 09:16:47;;;;;;;14.77;11.40;;;;;;;;;;4941670;29;20030;-80
2023/04/30 09:19:42;;;;;;;17.35;12.13;;;;;;;;;;4924774;29;20043;-85
2023/04/30 09:22:21;;;;;;;14.75;9.93;;;;;;;;;;4885609;29;20419;-85
2023/04/30 09:24:48;;;;;;;11.05;8.40;;;;;;;;;;4877943;29;20421;-84
2023/04/30 09:27:18;;;;;;;14.35;7.57;;;;;;;;;;4867168;29;20101;-83
2023/04/30 09:29:45;;;;;;;10.80;7.40;;;;;;;;;;4865001;29;20500;-82
2023/04/30 09:32:12;;;;;;;14.45;8.65;;;;;;;;;;4871503;29;20075;-83
2023/04/30 09:34:39;;;;;;;10.68;8.57;;;;;;;;;;4882474;29;20070;-85
2023/04/30 09:37:06;;;;;;;12.85;9.00;;;;;;;;;;4879015;29;20447;-85
2023/04/30 09:39:33;;;;;;;12.77;9.15;;;;;;;;;;4882253;29;20029;-83
2023/04/30 09:42:09;;;;;;;12.70;8.88;;;;;;;;;;4874909;29;20033;-82
2023/04/30 09:44:38;;;;;;;13.48;9.80;;;;;;;;;;4853058;29;20328;-84
2023/04/30 09:47:04;;;;;;;10.52;8.95;;;;;;;;;;4881071;29;20541;-82
2023/04/30 09:49:31;;;;;;;9.40;7.80;;;;;;;;;;4880252;29;20045;-84
2023/04/30 09:52:00;;;;;;;13.52;9.20;;;;;;;;;;4872705;29;20045;-85
2023/04/30 09:54:28;;;;;;;12.48;8.98;;;;;;;;;;4871790;29;20146;-85
2023/04/30 09:56:57;;;;;;;15.18;9.52;;;;;;;;;;4864780;29;20033;-83
2023/04/30 09:59:25;;;;;;;13.48;9.02;;;;;;;;;;4930184;29;20046;-83
2023/04/30 10:01:51;;;;;;;18.80;9.82;;;;;;;;;;4939908;29;20079;-86
2023/04/30 10:04:18;;;;;;;15.20;9.32;;;;;;;;;;4940937;29;20028;-85
2023/04/30 10:06:45;;;;;;;11.88;8.45;;;;;;;;;;4940897;29;20429;-85
2023/04/30 10:09:14;;;;;;;13.80;9.23;;;;;;;;;;4940614;29;20023;-83
2023/04/30 10:11:43;;;;;;;12.23;6.95;;;;;;;;;;4935914;29;20023;-83
2023/04/30 10:14:12;;;;;;;19.05;9.68;;;;;;;;;;4939480;29;20039;-87
2023/04/30 10:16:57;;;;;;;9.52;6.60;;;;;;;;;;4945169;29;20011;-90
2023/04/30 10:19:24;;;;;;;8.95;6.65;;;;;;;;;;4947742;29;20027;-91
2023/04/30 10:21:50;;;;;;;10.35;6.47;;;;;;;;;;4940245;29;20143;-89
2023/04/30 10:24:18;;;;;;;11.82;6.28;;;;;;;;;;4940440;29;20079;-88
2023/04/30 10:26:44;;;;;;;9.02;6.18;;;;;;;;;;4923555;29;20331;-89
2023/04/30 10:29:11;;;;;;;9.18;5.90;;;;;;;;;;4939963;29;20024;-87
2023/04/30 10:31:58;;;;;;;11.40;6.43;;;;;;;;;;4931558;29;20029;-90
2023/04/30 10:34:44;;;;;;;8.40;6.18;;;;;;;;;;4920623;29;20036;-88
2023/04/30 10:37:29;;;;;;;8.75;5.72;;;;;;;;;;4921478;29;20040;-90
2023/04/30 10:39:55;;;;;;;9.70;5.78;;;;;;;;;;4920505;29;20314;-89
2023/04/30 10:42:21;;;;;;;9.52;5.60;;;;;;;;;;4921056;29;20027;-90
2023/04/30 10:44:47;;;;;;;8.15;5.45;;;;;;;;;;4921713;29;20028;-90
2023/04/30 10:47:15;;;;;;;8.55;5.43;;;;;;;;;;4921109;29;20036;-89
2023/04/30 10:49:46;;;;;;;10.35;5.50;;;;;;;;;;4919930;29;20024;-89
2023/04/30 10:52:13;;;;;;;6.88;6.00;;;;;;;;;;4920223;29;20072;-90
2023/04/30 10:54:40;;;;;;;10.63;5.40;;;;;;;;;;4921224;29;20427;-90
2023/04/30 10:57:13;;;;;;;8.48;5.22;;;;;;;;;;4921413;29;20028;-90
2023/04/30 11:00:03;;;;;;;11.60;5.63;;;;;;;;;;4921471;29;20482;-91
2023/04/30 11:02:38;;;;;;;10.15;5.13;;;;;;;;;;4848206;29;20045;-90
2023/04/30 11:05:07;;;;;;;10.00;5.13;;;;;;;;;;4863549;29;20071;-89
2023/04/30 11:07:33;;;;;;;9.40;5.15;;;;;;;;;;4863469;29;20046;-90
2023/04/30 11:10:01;;;;;;;20.27;5.40;;;;;;;;;;4863842;29;20316;-89
2023/04/30 11:12:27;;;;;;;17.70;6.43;;;;;;;;;;4848175;29;20065;-89
2023/04/30 11:15:15;;;;;;;7.90;5.07;;;;;;;;;;4848206;29;20079;-90
2023/04/30 11:17:43;;;;;;;14.13;5.88;;;;;;;;;;4848041;29;20025;-89
2023/04/30 11:20:11;;;;;;;7.22;4.60;;;;;;;;;;4868136;29;20073;-90
2023/04/30 11:22:38;;;;;;;6.63;4.50;;;;;;;;;;4882105;29;20068;-90
2023/04/30 11:25:12;;;;;;;9.52;4.78;;;;;;;;;;4879616;29;20165;-90
2023/04/30 11:27:41;;;;;;;8.05;4.38;;;;;;;;;;4856351;29;20056;-89
2023/04/30 11:30:13;;;;;;;8.05;4.50;;;;;;;;;;4858735;29;20041;-89
2023/04/30 11:32:40;;;;;;;7.95;4.05;;;;;;;;;;4874216;29;20403;-91
2023/04/30 11:35:07;;;;;;;8.93;4.25;;;;;;;;;;4866398;29;20025;-90
2023/04/30 11:37:35;;;;;;;8.40;5.00;;;;;;;;;;4865396;29;20033;-90
2023/04/30 11:40:10;;;;;;;9.05;4.25;;;;;;;;;;4903099;29;20028;-90
2023/04/30 11:42:40;;;;;;;10.07;4.70;;;;;;;;;;4939983;29;20162;-87
2023/04/30 11:45:10;;;;;;;8.73;4.68;;;;;;;;;;4939895;29;20031;-91
2023/04/30 11:47:40;;;;;;;10.27;4.65;;;;;;;;;;4939968;29;20032;-93
2023/04/30 11:50:07;;;;;;;5.43;4.00;;;;;;;;;;4939894;29;20038;-93
2023/04/30 11:52:33;;;;;;;5.72;3.40;;;;;;;;;;4938440;29;20494;-92
2023/04/30 11:54:59;;;;;;;6.40;3.90;;;;;;;;;;4939732;29;20028;-91
2023/04/30 11:57:25;;;;;;;9.00;5.63;;;;;;;;;;4939889;29;20051;-89
2023/04/30 11:59:52;;;;;;;8.30;4.43;;;;;;;;;;4939867;29;20031;-90
2023/04/30 12:02:18;;;;;;;6.93;4.43;;;;;;;;;;4943220;29;20028;-88
2023/04/30 12:04:47;;;;;;;7.45;4.10;;;;;;;;;;4943125;29;20067;-87
2023/04/30 12:07:16;;;;;;;6.15;3.88;;;;;;;;;;4941715;29;20442;-87
2023/04/30 12:09:52;;;;;;;8.80;3.63;;;;;;;;;;4944996;29;20038;-91
2023/04/30 12:12:28;;;;;;;8.35;3.60;;;;;;;;;;4942848;29;20055;-88
2023/04/30 12:14:55;;;;;;;5.32;3.40;;;;;;;;;;4943346;29;20068;-87
2023/04/30 12:17:36;;;;;;;7.15;4.13;;;;;;;;;;4961177;29;20033;-87
2023/04/30 12:20:03;;;;;;;6.68;3.70;;;;;;;;;;4956662;29;20052;-86
2023/04/30 12:22:30;;;;;;;7.13;4.20;;;;;;;;;;4958377;29;20045;-87
2023/04/30 12:24:56;;;;;;;8.32;4.47;;;;;;;;;;4961966;29;20325;-87
2023/04/30 12:27:22;;;;;;;6.82;4.60;;;;;;;;;;4937315;29;20051;-86
2023/04/30 12:29:49;;;;;;;7.57;4.60;;;;;;;;;;4942780;29;20028;-89
2023/04/30 12:32:36;;;;;;;7.80;4.32;;;;;;;;;;4941627;29;20082;-89
2023/04/30 12:35:03;;;;;;;11.18;4.60;;;;;;;;;;4941138;29;20433;-87
2023/04/30 12:37:29;;;;;;;6.95;3.97;;;;;;;;;;4943091;29;20059;-89
2023/04/30 12:39:55;;;;;;;6.25;4.55;;;;;;;;;;4941159;29;20036;-80
2023/04/30 12:42:22;;;;;;;8.52;4.55;;;;;;;;;;4942151;29;20036;-90
2023/04/30 12:44:48;;;;;;;7.07;5.00;;;;;;;;;;4941492;29;20027;-91
2023/04/30 12:47:15;;;;;;;15.50;6.50;;;;;;;;;;4942556;29;20027;-91
2023/04/30 12:49:41;;;;;;;12.07;6.15;;;;;;;;;;4941440;29;20031;-90
2023/04/30 12:52:11;;;;;;;12.13;6.45;;;;;;;;;;4941374;29;20122;-91
2023/04/30 12:54:37;;;;;;;7.22;6.13;;;;;;;;;;4942707;29;20292;-91
2023/04/30 12:57:05;;;;;;;9.25;6.15;;;;;;;;;;4946457;29;20019;-89
2023/04/30 12:59:33;;;;;;;8.70;6.47;;;;;;;;;;4937321;29;20036;-91
2023/04/30 13:02:30;;;;;;;13.43;6.22;;;;;;;;;;4941958;29;20023;-90
2023/04/30 13:05:01;;;;;;;7.00;4.22;;;;;;;;;;4937473;29;20075;-92
2023/04/30 13:07:37;;;;;;;4.68;4.07;;;;;;;;;;4939475;29;20407;-86
2023/04/30 13:10:04;;;;;;;5.18;4.38;;;;;;;;;;4942139;29;20027;-92
2023/04/30 13:12:30;;;;;;;6.13;4.28;;;;;;;;;;4940410;29;20028;-90
2023/04/30 13:14:56;;;;;;;6.72;3.22;;;;;;;;;;4942983;29;20111;-89
2023/04/30 13:17:22;;;;;;;10.40;3.63;;;;;;;;;;4941036;29;20031;-89
2023/04/30 13:19:49;;;;;;;16.48;3.90;;;;;;;;;;4944552;29;20024;-80
2023/04/30 13:22:15;;;;;;;10.05;5.10;;;;;;;;;;4952495;29;20071;-80
2023/04/30 13:24:41;;;;;;;7.85;4.78;;;;;;;;;;4941220;29;20020;-80
2023/04/30 13:27:07;;;;;;;5.95;4.20;;;;;;;;;;4941344;29;20027;-80
2023/04/30 13:29:33;;;;;;;6.82;4.53;;;;;;;;;;4941089;29;20024;-80
2023/04/30 13:31:59;;;;;;;7.25;4.22;;;;;;;;;;4940955;29;20019;-80
2023/04/30 13:34:25;;;;;;;9.80;3.95;;;;;;;;;;4948745;29;20460;-80
2023/04/30 13:36:52;;;;;;;6.18;3.88;;;;;;;;;;4959877;29;20020;-80
2023/04/30 13:39:18;;;;;;;6.78;3.47;;;;;;;;;;4958556;29;20046;-80
2023/04/30 13:41:46;;;;;;;7.50;4.00;;;;;;;;;;4960110;29;20028;-81
2023/04/30 13:44:12;;;;;;;4.95;3.10;;;;;;;;;;4927976;29;20130;-91
2023/04/30 13:49:42;;;;;;;3.95;2.90;;;;;;;;;;4959160;29;20098;-89
2023/04/30 13:52:08;;;;;;;4.80;2.80;;;;;;;;;;4955926;29;20030;-90
2023/04/30 13:54:34;;;;;;;4.97;2.95;;;;;;;;;;4958455;29;20473;-90
2023/04/30 13:57:00;;;;;;;4.82;2.90;;;;;;;;;;4944749;29;20363;-89
2023/04/30 13:59:26;;;;;;;4.68;2.90;;;;;;;;;;4941756;29;20045;-88
2023/04/30 14:01:52;;;;;;;11.15;3.00;;;;;;;;;;4960378;29;20027;-81
2023/04/30 14:04:18;;;;;;;3.45;2.45;;;;;;;;;;4959757;29;20106;-77
2023/04/30 14:06:45;;;;;;;15.20;2.65;;;;;;;;;;4959959;29;20031;-92
2023/04/30 14:09:11;;;;;;;4.20;2.60;;;;;;;;;;4959953;29;20452;-80
2023/04/30 14:11:38;;;;;;;5.10;2.58;;;;;;;;;;4958161;29;20118;-88
2023/04/30 14:14:04;;;;;;;3.50;2.38;;;;;;;;;;4950158;29;20086;-92
2023/04/30 14:16:31;;;;;;;4.22;2.30;;;;;;;;;;4942910;29;20027;-92
2023/04/30 14:18:57;;;;;;;4.32;2.50;;;;;;;;;;4943050;29;20054;-91
2023/04/30 14:21:23;;;;;;;2.92;2.22;;;;;;;;;;4959834;29;20059;-93
2023/04/30 14:23:51;;;;;;;7.28;4.47;;;;;;;;;;4959031;28;20032;-92
2023/04/30 14:26:17;;;;;;;5.28;1.95;;;;;;;;;;4943346;29;20047;-92
2023/04/30 14:28:45;;;;;;;3.30;1.38;;;;;;;;;;4959862;29;20358;-92
2023/04/30 14:31:11;;;;;;;3.40;1.92;;;;;;;;;;4959760;29;20422;-92
2023/04/30 14:33:37;;;;;;;5.03;2.25;;;;;;;;;;4959741;29;20027;-93
2023/04/30 14:36:03;;;;;;;2.45;1.70;;;;;;;;;;4959738;29;20031;-92
2023/04/30 14:38:29;;;;;;;1.92;1.35;;;;;;;;;;4959755;29;20019;-91
2023/04/30 14:40:55;;;;;;;2.20;1.25;;;;;;;;;;4959610;29;20027;-92
2023/04/30 14:43:22;;;;;;;4.80;1.60;;;;;;;;;;4942622;29;20033;-93
2023/04/30 14:45:48;;;;;;;2.42;1.60;;;;;;;;;;4942810;29;20414;-92
2023/04/30 14:48:14;;;;;;;2.95;1.90;;;;;;;;;;4942516;29;20035;-92
2023/04/30 14:50:41;;;;;;;4.00;1.40;;;;;;;;;;4959470;29;20044;-92
2023/04/30 14:53:08;;;;;;;4.15;1.80;;;;;;;;;;4942556;29;20038;-91
2023/04/30 14:55:34;;;;;;;1.83;1.70;;;;;;;;;;4959600;29;20124;-92
2023/04/30 14:58:00;;;;;;;5.57;1.70;;;;;;;;;;4942621;29;20019;-92
2023/04/30 15:00:28;;;;;;;6.43;1.90;;;;;;;;;;4959816;29;20030;-91
2023/04/30 15:02:54;;;;;;;3.00;1.63;;;;;;;;;;4959662;29;20028;-91
2023/04/30 15:05:20;;;;;;;1.98;1.50;;;;;;;;;;4959577;29;20027;-92
2023/04/30 15:07:46;;;;;;;4.78;1.58;;;;;;;;;;4942456;29;20114;-91
2023/04/30 15:10:12;;;;;;;2.63;1.73;;;;;;;;;;4959400;29;20031;-92
2023/04/30 15:12:38;;;;;;;2.85;1.50;;;;;;;;;;4942374;29;20118;-92